Time;durP1;ratioP1;P1;durP2;ratioP2;P2;SDS_P1;SDS_P2;PMS_P1;PMS_P2;Temp;Humidity;BMP_temperature;BMP_pressure;BME280_temperature;BME280_humidity;BME280_pressure;Samples;Min_cycle;Max_cycle;Signal;HPM_P1;HPM_P2
2023/01/02 00:01:59;;;;;;;4.30;0.88;;;;;;;19.53;40.78;100901.13;16122498;19;129623;-48
2023/01/02 00:07:21;;;;;;;1.75;0.63;;;;;;;19.50;40.37;100890.53;16123031;19;129168;-49
2023/01/02 00:12:43;;;;;;;2.90;0.77;;;;;;;19.48;40.43;100892.69;16123316;19;129478;-49
2023/01/02 00:18:05;;;;;;;5.20;0.90;;;;;;;19.46;40.35;100894.88;16122557;19;130289;-59
2023/01/02 00:23:26;;;;;;;2.28;0.60;;;;;;;19.44;40.36;100891.56;16123687;19;129988;-50
2023/01/02 00:28:48;;;;;;;3.30;0.80;;;;;;;19.44;40.82;100886.00;16123841;19;129390;-56
2023/01/02 00:34:10;;;;;;;1.60;0.60;;;;;;;19.42;40.39;100888.19;16125882;19;130104;-50
2023/01/02 00:39:31;;;;;;;5.50;1.02;;;;;;;19.40;40.36;100885.63;16122704;19;129285;-51
2023/01/02 00:44:53;;;;;;;1.00;0.60;;;;;;;19.40;40.58;100884.81;16121039;19;129750;-48
2023/01/02 00:50:15;;;;;;;1.38;0.70;;;;;;;19.37;40.79;100881.44;16118072;19;130654;-44
2023/01/02 00:55:37;;;;;;;2.90;0.70;;;;;;;19.36;40.38;100878.94;16132581;19;129433;-44
2023/01/02 01:00:59;;;;;;;2.03;0.65;;;;;;;19.35;40.82;100880.03;16135388;19;131206;-52
2023/01/02 01:06:21;;;;;;;3.40;0.60;;;;;;;19.34;40.60;100870.03;16135615;19;129932;-51
2023/01/02 01:11:43;;;;;;;1.77;0.85;;;;;;;19.32;40.83;100861.94;16133341;19;130274;-48
2023/01/02 01:17:05;;;;;;;1.15;0.73;;;;;;;19.31;40.69;100860.28;16136964;19;130487;-51
2023/01/02 01:22:26;;;;;;;3.85;0.70;;;;;;;19.30;40.62;100858.59;16133157;19;130317;-50
2023/01/02 01:27:52;;;;;;;1.48;0.60;;;;;;;19.28;40.49;100871.88;16131961;19;129395;-53
2023/01/02 01:33:14;;;;;;;1.98;0.60;;;;;;;19.27;40.72;100884.06;16131536;19;129925;-54
2023/01/02 01:38:36;;;;;;;2.20;0.73;;;;;;;19.27;40.90;100884.06;16130188;19;130597;-47
2023/01/02 01:44:00;;;;;;;1.85;0.60;;;;;;;19.26;40.42;100882.38;16129913;19;129510;-50
2023/01/02 01:49:27;;;;;;;2.78;0.75;;;;;;;19.25;40.48;100880.69;16131130;19;130355;-49
2023/01/02 01:54:57;;;;;;;1.73;0.80;;;;;;;19.24;40.51;100883.72;16131578;19;129583;-47
2023/01/02 02:00:19;;;;;;;1.65;0.60;;;;;;;19.22;40.80;100892.28;16131293;19;129591;-52
2023/01/02 02:05:42;;;;;;;0.82;0.50;;;;;;;19.22;40.71;100895.06;16131350;19;129405;-51
2023/01/02 02:11:05;;;;;;;2.92;0.70;;;;;;;19.20;40.46;100889.72;16132631;19;130112;-49
2023/01/02 02:16:37;;;;;;;0.80;0.60;;;;;;;19.19;40.53;100901.09;16127406;19;130029;-49
2023/01/02 02:22:37;;;;;;;2.13;0.75;;;;;;;19.18;40.68;100900.22;16127422;19;129672;-48
2023/01/02 02:28:27;;;;;;;2.55;0.80;;;;;;;19.17;40.74;100906.03;16131770;19;130161;-54
2023/01/02 02:34:09;;;;;;;3.40;0.60;;;;;;;19.17;40.76;100919.91;16127658;19;130565;-48
2023/01/02 02:39:40;;;;;;;2.03;0.88;;;;;;;19.16;40.59;100934.88;16128296;19;129414;-50
2023/01/02 02:45:19;;;;;;;1.88;0.90;;;;;;;19.15;40.85;100922.09;16130340;19;130798;-50
2023/01/02 02:50:48;;;;;;;1.55;0.70;;;;;;;19.13;40.93;100918.72;16128512;19;130149;-53
2023/01/02 02:56:12;;;;;;;2.05;0.65;;;;;;;19.12;40.92;100917.88;16127502;19;129712;-53
2023/01/02 03:01:35;;;;;;;2.70;0.73;;;;;;;19.11;40.89;100905.13;16128705;19;129465;-51
2023/01/02 03:07:49;;;;;;;1.25;0.60;;;;;;;19.11;40.95;100898.72;16126970;19;129596;-50
2023/01/02 03:13:28;;;;;;;3.28;0.82;;;;;;;19.12;40.82;100894.84;16122291;19;130631;-47
2023/01/02 03:19:12;;;;;;;2.47;0.90;;;;;;;19.10;40.54;100897.03;16123263;19;130125;-49
2023/01/02 03:24:36;;;;;;;4.53;0.80;;;;;;;19.07;40.58;100893.69;16127630;19;129399;-55
2023/01/02 03:30:05;;;;;;;3.40;1.10;;;;;;;19.08;40.89;100895.34;16123328;19;130170;-54
2023/01/02 03:35:34;;;;;;;2.08;0.70;;;;;;;19.07;41.04;100902.00;16124645;19;131152;-48
2023/01/02 03:41:08;;;;;;;2.42;0.82;;;;;;;19.07;40.88;100902.00;16126694;19;130896;-48
2023/01/02 03:47:07;;;;;;;1.38;0.70;;;;;;;19.07;40.65;100904.78;16125258;19;130323;-51
2023/01/02 03:52:29;;;;;;;2.75;0.60;;;;;;;19.04;41.10;100919.13;16122954;19;130447;-48
2023/01/02 03:58:12;;;;;;;5.82;1.20;;;;;;;19.04;40.71;100923.81;16127107;19;129479;-49
2023/01/02 04:03:44;;;;;;;1.85;0.70;;;;;;;19.03;40.77;100934.09;16125619;19;129467;-49
2023/01/02 04:09:10;;;;;;;2.88;0.80;;;;;;;19.03;40.90;100944.31;16124761;19;129396;-49
2023/01/02 04:14:49;;;;;;;1.67;0.77;;;;;;;19.03;41.18;100947.94;16120979;19;130094;-50
2023/01/02 04:20:18;;;;;;;2.03;0.90;;;;;;;19.02;40.97;100945.41;16123980;19;130298;-52
2023/01/02 04:26:09;;;;;;;1.40;0.70;;;;;;;19.01;40.79;100952.91;16121460;19;131099;-47
2023/01/02 04:32:24;;;;;;;1.55;0.77;;;;;;;18.98;41.08;100955.31;16136078;19;130425;-50
2023/01/02 04:37:46;;;;;;;2.33;0.77;;;;;;;18.98;41.08;100961.69;16128135;19;129941;-53
2023/01/02 04:43:18;;;;;;;1.95;0.70;;;;;;;18.98;41.05;100972.78;16127109;19;131628;-50
2023/01/02 04:48:40;;;;;;;2.92;0.70;;;;;;;18.97;41.26;100975.81;16125939;19;129665;-46
2023/01/02 04:54:02;;;;;;;2.55;0.98;;;;;;;18.96;41.23;100980.50;16125205;19;130155;-51
2023/01/02 04:59:23;;;;;;;3.08;0.50;;;;;;;18.96;41.11;100986.06;16125681;19;129940;-56
2023/01/02 05:04:45;;;;;;;2.00;0.70;;;;;;;18.95;40.80;100987.16;16127875;19;130352;-47
2023/01/02 05:10:08;;;;;;;3.38;0.68;;;;;;;18.94;41.11;100988.25;16134893;19;129629;-45
2023/01/02 05:15:30;;;;;;;2.88;0.60;;;;;;;18.94;41.28;100993.81;16132588;19;130284;-46
2023/01/02 05:20:52;;;;;;;2.05;0.70;;;;;;;18.93;41.28;101000.44;16134210;19;129482;-49
2023/01/02 05:26:15;;;;;;;1.30;0.60;;;;;;;18.94;40.89;101009.56;16131724;19;130932;-49
2023/01/02 05:31:37;;;;;;;2.55;0.80;;;;;;;;;;16135279;19;135150;-51
2023/01/02 05:36:59;;;;;;;2.05;0.68;;;;;;;18.91;40.83;101027.56;16132913;19;129930;-45
2023/01/02 05:42:21;;;;;;;1.13;0.52;;;;;;;18.90;41.31;101043.31;16130731;19;129605;-47
2023/01/02 05:47:43;;;;;;;2.63;0.52;;;;;;;18.90;41.00;101042.50;16133311;19;135538;-50
2023/01/02 05:53:04;;;;;;;1.75;0.60;;;;;;;18.88;41.06;101042.75;16130657;19;129914;-53
2023/01/02 05:58:29;;;;;;;1.23;0.50;;;;;;;18.87;41.11;101068.78;16129456;19;129135;-46
2023/01/02 06:03:53;;;;;;;1.15;0.50;;;;;;;18.88;41.20;101122.28;16129696;19;130022;-50
2023/01/02 06:09:15;;;;;;;1.33;0.50;;;;;;;18.88;41.41;101137.00;16127873;19;129302;-45
2023/01/02 06:14:37;;;;;;;2.10;0.90;;;;;;;18.87;40.95;101146.41;16128959;19;129357;-50
2023/01/02 06:19:59;;;;;;;1.38;0.90;;;;;;;18.86;41.26;101146.63;16127738;19;129251;-55
2023/01/02 06:25:21;;;;;;;1.65;0.50;;;;;;;18.86;40.86;101158.56;16127302;19;129963;-45
2023/01/02 06:30:42;;;;;;;0.82;0.50;;;;;;;18.87;40.86;101181.59;16125775;19;133091;-53
2023/01/02 06:36:14;;;;;;;0.93;0.52;;;;;;;18.87;41.02;101187.13;16116200;19;130679;-46
2023/01/02 06:41:36;;;;;;;1.83;0.70;;;;;;;18.89;41.78;101204.38;16110670;19;131587;-49
2023/01/02 06:46:58;;;;;;;2.70;0.70;;;;;;;18.95;41.52;101222.81;16120793;19;130200;-43
2023/01/02 06:52:20;;;;;;;6.28;0.90;;;;;;;19.01;41.88;101241.25;16110246;19;129751;-47
2023/01/02 06:57:42;;;;;;;3.55;0.82;;;;;;;19.03;41.59;101258.50;16118163;19;129867;-50
2023/01/02 07:03:04;;;;;;;3.45;0.60;;;;;;;19.02;41.81;101267.91;16115658;19;129905;-48
2023/01/02 07:08:25;;;;;;;1.23;0.50;;;;;;;19.00;41.92;101286.69;16114804;19;131631;-44
2023/01/02 07:13:50;;;;;;;4.50;0.50;;;;;;;18.98;41.86;101305.50;16117417;19;129861;-48
2023/01/02 07:19:12;;;;;;;4.47;0.70;;;;;;;18.96;41.39;101306.84;16125011;19;129636;-44
2023/01/02 07:24:34;;;;;;;4.38;0.82;;;;;;;18.94;41.68;101320.94;16124163;19;129291;-48
2023/01/02 07:29:55;;;;;;;3.42;0.95;;;;;;;;;;16126165;19;130442;-48
2023/01/02 07:35:17;;;;;;;1.33;0.47;;;;;;;18.90;41.84;101336.34;16122403;19;130194;-46
2023/01/02 07:40:39;;;;;;;1.42;0.50;;;;;;;18.87;41.47;101343.22;16124451;19;131246;-47
2023/01/02 07:46:02;;;;;;;3.75;0.40;;;;;;;18.87;41.74;101359.88;16123230;19;129690;-52
2023/01/02 07:51:24;;;;;;;2.67;0.50;;;;;;;18.86;41.60;101368.41;16121370;19;129565;-47
2023/01/02 07:56:48;;;;;;;3.40;0.50;;;;;;;18.83;41.62;101386.34;16121236;19;129033;-48
2023/01/02 08:02:10;;;;;;;1.02;0.40;;;;;;;18.83;41.49;101396.63;16127726;19;130134;-49
2023/01/02 08:07:32;;;;;;;0.50;0.30;;;;;;;18.82;41.57;101406.00;16134118;19;130094;-51
2023/01/02 08:13:01;;;;;;;0.82;0.43;;;;;;;18.80;41.38;101405.41;16137361;19;130124;-51
2023/01/02 08:18:23;;;;;;;0.82;0.40;;;;;;;18.80;41.64;101410.94;16133074;19;130364;-52
2023/01/02 08:23:45;;;;;;;0.88;0.47;;;;;;;18.80;41.55;101419.25;16136926;19;129550;-51
2023/01/02 08:29:08;;;;;;;0.75;0.40;;;;;;;18.79;41.37;101425.88;16134471;19;129999;-52
2023/01/02 08:34:29;;;;;;;0.85;0.40;;;;;;;18.80;41.36;101438.66;16134042;19;129116;-51
2023/01/02 08:39:51;;;;;;;0.63;0.60;;;;;;;18.79;41.29;101445.28;16134877;19;129839;-48
2023/01/02 08:45:13;;;;;;;1.33;0.35;;;;;;;18.79;41.54;101440.56;16136283;19;129226;-52
2023/01/02 08:50:35;;;;;;;1.05;0.40;;;;;;;18.77;41.28;101460.22;16134471;19;129748;-50
2023/01/02 08:56:29;;;;;;;0.65;0.40;;;;;;;18.79;41.39;101479.38;16138460;19;129884;-49
2023/01/02 09:01:51;;;;;;;0.85;0.55;;;;;;;18.76;41.64;101504.81;16136979;19;129615;-46
2023/01/02 09:07:13;;;;;;;0.60;0.50;;;;;;;18.76;41.34;101505.66;16137908;19;129387;-51
2023/01/02 09:12:35;;;;;;;0.40;0.30;;;;;;;18.76;41.25;101513.13;16134720;19;129495;-51
2023/01/02 09:17:58;;;;;;;0.80;0.40;;;;;;;18.75;41.64;101523.34;16135042;19;130174;-48
2023/01/02 09:23:19;;;;;;;0.90;0.50;;;;;;;18.75;41.59;101517.81;16135820;19;130966;-53
2023/01/02 09:28:41;;;;;;;0.52;0.40;;;;;;;18.76;41.33;101525.06;16134559;19;129320;-47
2023/01/02 09:34:03;;;;;;;0.80;0.50;;;;;;;18.76;41.17;101529.75;16133108;19;130656;-47
2023/01/02 09:39:25;;;;;;;0.40;0.40;;;;;;;18.75;41.34;101539.97;16132146;19;129906;-52
2023/01/02 09:44:57;;;;;;;0.30;0.30;;;;;;;18.73;41.57;101550.44;16130454;19;133639;-47
2023/01/02 09:50:30;;;;;;;3.33;0.83;;;;;;;18.77;41.76;101562.78;16129697;19;129677;-45
2023/01/02 09:55:56;;;;;;;5.15;0.70;;;;;;;18.87;41.87;101558.59;16129643;19;129308;-49
2023/01/02 10:01:30;;;;;;;4.30;0.80;;;;;;;18.97;41.52;101563.63;16128814;19;129878;-50
2023/01/02 10:07:15;;;;;;;4.80;0.90;;;;;;;19.03;41.92;101563.53;16130859;19;129605;-49
2023/01/02 10:12:46;;;;;;;5.65;0.60;;;;;;;19.08;41.94;101582.22;16128079;19;130252;-46
2023/01/02 10:18:17;;;;;;;3.97;1.25;;;;;;;19.09;41.91;101589.47;16129225;19;131196;-49
2023/01/02 10:23:44;;;;;;;12.30;1.55;;;;;;;19.08;41.87;101605.25;16128311;19;129743;-47
2023/01/02 10:29:11;;;;;;;2.90;0.80;;;;;;;19.07;42.18;101598.03;16128993;19;129615;-50
2023/01/02 10:34:40;;;;;;;8.38;1.10;;;;;;;19.06;42.03;101599.13;16127107;19;129658;-48
2023/01/02 10:40:03;;;;;;;4.95;1.15;;;;;;;19.06;41.63;101604.66;16125378;19;129655;-47
2023/01/02 10:45:25;;;;;;;9.50;1.02;;;;;;;19.07;41.97;101605.50;16127109;19;129732;-49
2023/01/02 10:50:54;;;;;;;8.27;1.23;;;;;;;19.10;41.62;101606.94;16128115;19;129214;-49
2023/01/02 10:56:19;;;;;;;5.70;1.33;;;;;;;19.12;41.70;101599.25;16128390;19;130704;-47
2023/01/02 11:01:58;;;;;;;6.20;1.23;;;;;;;19.17;41.28;101604.94;16127854;19;129751;-52
2023/01/02 11:07:25;;;;;;;6.07;0.70;;;;;;;19.16;41.58;101606.88;16125710;19;129308;-49
2023/01/02 11:12:47;;;;;;;3.33;0.60;;;;;;;19.17;41.41;101607.72;16126384;19;130255;-44
2023/01/02 11:18:19;;;;;;;6.93;0.80;;;;;;;19.20;41.30;101610.88;16121714;19;129666;-46
2023/01/02 11:23:43;;;;;;;4.45;0.90;;;;;;;19.20;41.06;101607.28;16123828;19;130029;-45
2023/01/02 11:29:12;;;;;;;4.72;0.70;;;;;;;19.21;40.97;101603.41;16123552;19;129106;-47
2023/01/02 11:34:38;;;;;;;2.42;0.90;;;;;;;19.21;40.91;101626.47;16123445;19;129556;-49
2023/01/02 11:40:05;;;;;;;7.45;0.80;;;;;;;19.20;41.13;101630.28;16124727;19;130035;-49
2023/01/02 11:45:29;;;;;;;5.07;0.70;;;;;;;19.22;41.11;101632.84;16125371;19;129011;-48
2023/01/02 11:50:51;;;;;;;2.17;0.70;;;;;;;19.20;41.16;101646.09;16124595;19;129481;-46
2023/01/02 11:56:23;;;;;;;3.15;0.60;;;;;;;19.20;41.27;101651.66;16124569;19;129762;-47
2023/01/02 12:02:06;;;;;;;2.88;0.70;;;;;;;19.18;41.14;101638.00;16122735;19;130477;-47
2023/01/02 12:07:41;;;;;;;4.47;0.73;;;;;;;19.16;40.93;101629.06;16122216;19;129989;-47
2023/01/02 12:13:21;;;;;;;2.80;0.65;;;;;;;19.16;41.16;101644.88;16123292;19;128969;-52
2023/01/02 12:18:52;;;;;;;5.88;0.90;;;;;;;19.17;41.29;101660.44;16122932;19;133692;-49
2023/01/02 12:24:25;;;;;;;7.82;0.70;;;;;;;19.18;41.08;101671.28;16113263;19;130836;-49
2023/01/02 12:29:59;;;;;;;5.22;1.05;;;;;;;19.16;40.76;101670.66;16116375;19;129429;-49
2023/01/02 12:35:44;;;;;;;1.58;0.65;;;;;;;19.12;41.16;101665.81;16119029;19;129605;-48
2023/01/02 12:41:32;;;;;;;2.45;0.70;;;;;;;19.11;41.15;101664.13;16119557;19;129977;-47
2023/01/02 12:47:39;;;;;;;3.78;0.80;;;;;;;19.10;40.54;101667.97;16121127;19;129960;-47
2023/01/02 12:53:07;;;;;;;3.92;0.88;;;;;;;19.07;40.87;101675.69;16134540;19;129657;-50
2023/01/02 12:58:49;;;;;;;1.80;0.60;;;;;;;19.07;40.66;101672.06;16133645;19;129894;-46
2023/01/02 13:04:18;;;;;;;2.65;0.90;;;;;;;19.06;40.88;101668.44;16135589;19;129187;-47
2023/01/02 13:09:43;;;;;;;2.38;0.40;;;;;;;19.06;40.82;101687.88;16136022;19;130945;-50
2023/01/02 13:15:17;;;;;;;2.57;0.70;;;;;;;19.07;40.30;101681.25;16134128;19;129655;-45
2023/01/02 13:20:51;;;;;;;1.65;0.50;;;;;;;19.06;40.26;101685.09;16135452;19;129251;-47
2023/01/02 13:26:23;;;;;;;4.32;0.85;;;;;;;19.05;40.16;101694.47;16133357;19;129122;-50
2023/01/02 13:31:52;;;;;;;2.47;0.70;;;;;;;19.04;40.32;101706.66;16134425;19;129241;-47
2023/01/02 13:37:17;;;;;;;3.58;0.50;;;;;;;19.01;40.54;101709.88;16132605;19;129428;-51
2023/01/02 13:42:57;;;;;;;2.47;0.40;;;;;;;19.00;40.22;101708.19;16133328;19;130017;-51
2023/01/02 13:48:34;;;;;;;1.42;0.70;;;;;;;19.00;40.16;101716.50;16133503;19;129138;-48
2023/01/02 13:53:56;;;;;;;1.58;0.43;;;;;;;18.98;40.52;101726.13;16132003;19;129491;-49
2023/01/02 13:59:20;;;;;;;3.20;0.52;;;;;;;18.96;40.29;101729.13;16126713;19;129960;-47
2023/01/02 14:05:40;;;;;;;8.60;0.77;;;;;;;18.95;40.11;101735.78;16132339;19;129553;-52
2023/01/02 14:11:08;;;;;;;3.05;0.57;;;;;;;18.93;40.31;101735.16;16131069;19;129398;-52
2023/01/02 14:16:47;;;;;;;5.05;0.60;;;;;;;18.94;40.09;101747.06;16131339;19;131272;-51
2023/01/02 14:22:13;;;;;;;5.45;0.80;;;;;;;18.95;39.92;101770.94;16127524;19;129463;-50
2023/01/02 14:27:35;;;;;;;5.70;0.80;;;;;;;18.97;40.09;101777.94;16131416;19;129390;-51
2023/01/02 14:32:59;;;;;;;2.45;0.70;;;;;;;18.99;39.93;101783.28;16127255;19;129198;-51
2023/01/02 14:38:27;;;;;;;2.63;0.50;;;;;;;19.02;39.73;101789.22;16129145;19;129714;-50
2023/01/02 14:43:49;;;;;;;2.33;0.63;;;;;;;19.04;40.17;101802.84;16129843;19;129578;-50
2023/01/02 14:49:16;;;;;;;3.55;0.70;;;;;;;19.05;39.70;101810.97;16125140;19;129769;-45
2023/01/02 14:54:55;;;;;;;2.97;0.65;;;;;;;19.07;40.13;101816.28;16129102;19;130365;-50
2023/01/02 15:00:22;;;;;;;2.88;0.70;;;;;;;19.10;40.13;101826.91;16128491;19;129441;-48
2023/01/02 15:06:01;;;;;;;2.53;0.50;;;;;;;19.12;40.08;101827.53;16126708;19;129566;-46
2023/01/02 15:17:16;;;;;;;2.67;0.50;;;;;;;19.11;39.97;101849.94;16118146;19;129959;-46
2023/01/02 15:22:38;;;;;;;4.10;0.73;;;;;;;19.10;40.12;101870.44;16122627;19;129553;-46
2023/01/02 15:28:00;;;;;;;3.70;0.55;;;;;;;19.09;40.27;101875.13;16124481;19;129642;-49
2023/01/02 15:33:32;;;;;;;14.10;2.05;;;;;;;19.10;40.28;101892.63;16124927;19;129798;-47
2023/01/02 15:39:06;;;;;;;10.50;1.10;;;;;;;19.10;40.53;101906.47;16125411;19;130858;-52
2023/01/02 15:50:27;;;;;;;8.43;0.90;;;;;;;19.11;40.54;101924.81;16125229;19;129537;-46
2023/01/02 15:55:48;;;;;;;9.77;1.10;;;;;;;19.10;40.67;101937.00;16126194;19;129628;-51
2023/01/02 16:01:18;;;;;;;5.00;0.65;;;;;;;19.08;40.40;101943.63;16123376;19;130541;-46
2023/01/02 16:06:43;;;;;;;4.28;0.50;;;;;;;19.06;40.49;101951.34;16125937;19;130157;-52
2023/01/02 16:12:17;;;;;;;7.93;0.80;;;;;;;19.04;40.58;101959.03;16122272;19;129709;-51
2023/01/02 16:17:39;;;;;;;6.05;1.00;;;;;;;19.04;40.36;101963.69;16123462;19;132195;-47
2023/01/02 16:23:04;;;;;;;2.53;0.90;;;;;;;18.99;40.89;101986.56;16124704;19;129886;-50
2023/01/02 16:28:28;;;;;;;10.25;1.27;;;;;;;18.96;41.00;101989.78;16135371;19;129797;-49
2023/01/02 16:34:13;;;;;;;6.18;1.10;;;;;;;18.96;40.86;102000.03;16131487;19;129928;-45
2023/01/02 16:39:40;;;;;;;12.48;1.15;;;;;;;18.90;40.82;101994.28;16133353;19;130751;-48
2023/01/02 16:45:03;;;;;;;13.23;1.20;;;;;;;18.89;40.69;102008.38;16131802;19;129428;-48
2023/01/02 16:50:27;;;;;;;9.43;1.08;;;;;;;18.90;40.42;102012.84;16128574;19;130732;-55
2023/01/02 16:55:50;;;;;;;15.80;1.13;;;;;;;18.95;41.27;102031.59;16132314;19;130122;-49
2023/01/02 17:01:14;;;;;;;12.98;1.17;;;;;;;19.20;40.95;102035.28;16125864;19;130327;-50
2023/01/02 17:06:36;;;;;;;14.00;1.13;;;;;;;19.60;40.44;102036.94;16121435;19;129299;-52
2023/01/02 17:12:10;;;;;;;20.90;1.77;;;;;;;20.03;40.10;102045.59;16127488;19;129940;-47
2023/01/02 17:17:33;;;;;;;17.10;1.20;;;;;;;20.43;39.50;102047.97;16132034;19;129319;-45
2023/01/02 17:22:54;;;;;;;10.57;0.98;;;;;;;20.76;39.06;102057.84;16133646;19;129577;-46
2023/01/02 17:28:16;;;;;;;4.88;1.00;;;;;;;21.02;38.69;102058.59;16133174;19;129703;-45
2023/01/02 17:33:38;;;;;;;5.97;1.00;;;;;;;21.25;37.97;102066.16;16131499;19;129393;-45
2023/01/02 17:39:00;;;;;;;4.47;0.80;;;;;;;21.38;37.58;102076.25;16133499;19;129801;-47
2023/01/02 17:44:22;;;;;;;7.25;0.75;;;;;;;21.40;37.51;102082.44;16132756;19;129613;-47
2023/01/02 17:49:44;;;;;;;5.03;0.85;;;;;;;21.32;38.04;102093.91;16132008;19;131419;-49
2023/01/02 17:55:07;;;;;;;4.95;0.60;;;;;;;21.17;37.94;102095.16;16131247;19;129137;-52
2023/01/02 18:00:29;;;;;;;3.08;0.60;;;;;;;21.04;38.21;102114.84;16130190;19;130381;-48
2023/01/02 18:05:51;;;;;;;4.35;0.90;;;;;;;20.86;38.48;102124.06;16132273;19;129539;-48
2023/01/02 18:11:15;;;;;;;2.90;0.60;;;;;;;20.71;38.54;102122.47;16132644;19;129335;-50
2023/01/02 18:16:39;;;;;;;5.63;1.08;;;;;;;20.56;38.51;102142.31;16132504;19;129565;-48
2023/01/02 18:22:01;;;;;;;2.95;0.68;;;;;;;20.44;39.09;102145.00;16131346;19;130289;-47
2023/01/02 18:27:28;;;;;;;4.50;0.63;;;;;;;20.39;39.12;102153.16;16130970;19;129817;-47
2023/01/02 18:33:06;;;;;;;3.28;0.70;;;;;;;20.43;38.80;102170.25;16128168;19;129473;-47
2023/01/02 18:38:30;;;;;;;2.28;0.60;;;;;;;20.66;38.75;102174.31;16119516;19;129597;-48
2023/01/02 18:44:19;;;;;;;7.20;0.70;;;;;;;21.02;38.42;102183.78;16122850;19;131496;-51
2023/01/02 18:49:42;;;;;;;5.55;0.93;;;;;;;21.35;37.91;102199.22;16126168;19;129052;-51
2023/01/02 18:55:21;;;;;;;3.20;0.73;;;;;;;21.65;37.70;102198.41;16122877;19;129915;-47
2023/01/02 19:00:44;;;;;;;5.28;0.80;;;;;;;21.86;37.51;102204.53;16125990;19;129196;-45
2023/01/02 19:06:17;;;;;;;3.70;0.60;;;;;;;22.08;37.42;102225.19;16127795;19;131189;-48
2023/01/02 19:17:25;;;;;;;9.77;0.80;;;;;;;22.40;36.75;102243.59;16121188;19;131055;-46
2023/01/02 19:22:47;;;;;;;9.18;1.20;;;;;;;22.36;36.41;102240.44;16123575;19;130335;-46
2023/01/02 19:28:28;;;;;;;13.65;1.17;;;;;;;22.49;36.13;102246.88;16120936;19;130745;-48
2023/01/02 19:34:00;;;;;;;12.05;1.50;;;;;;;22.64;36.32;102251.97;16123725;19;129992;-47
2023/01/02 19:39:22;;;;;;;12.13;1.52;;;;;;;22.77;36.36;102267.66;16122694;19;129586;-47
2023/01/02 19:44:50;;;;;;;9.52;1.10;;;;;;;22.88;36.12;102272.38;16124618;19;130976;-47
2023/01/02 19:50:23;;;;;;;6.05;1.00;;;;;;;22.98;36.17;102281.00;16124662;19;130417;-49
2023/01/02 19:55:45;;;;;;;7.38;1.13;;;;;;;23.07;36.50;102291.81;16125513;19;129395;-48
2023/01/02 20:01:07;;;;;;;3.05;0.82;;;;;;;23.13;36.11;102300.03;16138525;19;129590;-46
2023/01/02 20:06:29;;;;;;;5.65;0.85;;;;;;;23.15;36.43;102299.78;16139358;19;131141;-47
2023/01/02 20:17:33;;;;;;;4.75;1.00;;;;;;;23.03;36.75;102306.22;16136856;19;129517;-44
2023/01/02 20:22:55;;;;;;;5.68;0.80;;;;;;;22.94;36.84;102315.22;16136875;19;130184;-47
2023/01/02 20:28:17;;;;;;;4.47;0.60;;;;;;;22.82;37.30;102309.59;16133880;19;129949;-46
2023/01/02 20:33:38;;;;;;;14.05;0.95;;;;;;;22.71;37.24;102314.94;16137065;19;133836;-47
2023/01/02 20:39:00;;;;;;;3.30;0.63;;;;;;;22.64;37.31;102310.56;16137231;19;130105;-45
2023/01/02 20:44:23;;;;;;;7.25;0.95;;;;;;;22.56;37.47;102326.56;16134868;19;129483;-47
2023/01/02 20:49:45;;;;;;;8.65;0.73;;;;;;;22.53;37.90;102342.91;16137935;19;129874;-47
2023/01/02 20:55:07;;;;;;;12.63;0.80;;;;;;;22.50;38.07;102348.97;16134989;19;130917;-46
2023/01/02 21:00:29;;;;;;;5.07;0.65;;;;;;;22.46;38.00;102347.75;16132156;19;130513;-49
2023/01/02 21:05:52;;;;;;;8.32;1.00;;;;;;;22.37;37.97;102355.59;16133835;19;133957;-48
2023/01/02 21:11:14;;;;;;;11.80;0.90;;;;;;;22.30;37.91;102355.69;16131588;19;130198;-51
2023/01/02 21:16:36;;;;;;;8.77;1.05;;;;;;;22.17;37.93;102362.28;16133105;19;129800;-48
2023/01/02 21:21:58;;;;;;;7.00;0.80;;;;;;;22.06;38.47;102377.00;16132601;19;129855;-45
2023/01/02 21:27:19;;;;;;;4.75;0.70;;;;;;;21.93;38.67;102378.03;16132607;19;130769;-46
2023/01/02 21:32:41;;;;;;;6.15;0.70;;;;;;;21.79;38.55;102374.56;16132329;19;129775;-45
2023/01/02 21:38:03;;;;;;;3.63;0.75;;;;;;;21.67;38.70;102392.06;16132549;19;130357;-49
2023/01/02 21:43:25;;;;;;;5.80;0.90;;;;;;;21.52;38.88;102384.09;16129293;19;130239;-51
2023/01/02 21:48:47;;;;;;;1.48;0.52;;;;;;;21.40;38.98;102385.91;16132917;19;129495;-44
2023/01/02 21:54:09;;;;;;;6.22;0.60;;;;;;;21.28;39.27;102396.06;16131471;19;129633;-48
2023/01/02 21:59:31;;;;;;;6.10;0.63;;;;;;;21.16;39.40;102402.41;16125645;19;129760;-48
2023/01/02 22:04:53;;;;;;;3.33;0.68;;;;;;;21.06;39.19;102390.91;16129614;19;131130;-46
2023/01/02 22:10:15;;;;;;;2.33;0.70;;;;;;;20.96;39.29;102396.13;16131570;19;131522;-45
2023/01/02 22:15:37;;;;;;;3.30;0.40;;;;;;;20.86;39.28;102402.22;16131943;19;130300;-46
2023/01/02 22:20:59;;;;;;;4.60;0.70;;;;;;;20.79;39.62;102421.72;16127243;19;132576;-49
2023/01/02 22:26:20;;;;;;;1.65;0.43;;;;;;;20.71;39.92;102428.38;16129635;19;129450;-45
2023/01/02 22:31:43;;;;;;;5.53;0.77;;;;;;;20.65;39.70;102428.44;16127174;19;130185;-45
2023/01/02 22:37:05;;;;;;;1.23;0.40;;;;;;;20.59;39.78;102439.34;16128275;19;130296;-44
2023/01/02 22:48:29;;;;;;;2.35;0.50;;;;;;;20.48;39.62;102445.63;16125767;19;130698;-44
2023/01/02 22:53:51;;;;;;;1.63;0.52;;;;;;;20.42;40.02;102461.25;16126925;19;129858;-46
2023/01/02 22:59:13;;;;;;;2.83;0.50;;;;;;;20.37;39.90;102465.78;16127069;19;129342;-45
2023/01/02 23:04:34;;;;;;;2.42;0.30;;;;;;;20.31;40.15;102478.63;16123672;19;129951;-51
2023/01/02 23:09:56;;;;;;;2.88;0.60;;;;;;;20.26;40.16;102476.50;16126258;19;130011;-46
2023/01/02 23:15:18;;;;;;;1.85;0.45;;;;;;;20.21;40.20;102470.75;16124888;19;129193;-48
2023/01/02 23:20:40;;;;;;;1.27;0.38;;;;;;;20.17;40.35;102483.41;16127761;19;129398;-45
2023/01/02 23:26:04;;;;;;;1.45;0.38;;;;;;;20.13;40.33;102476.56;16127454;19;129222;-46
2023/01/02 23:31:26;;;;;;;1.42;0.30;;;;;;;20.10;40.10;102488.09;16122459;19;129763;-47
2023/01/02 23:36:49;;;;;;;0.93;0.30;;;;;;;20.06;40.33;102500.75;16122448;19;129524;-45
2023/01/02 23:42:11;;;;;;;1.55;0.50;;;;;;;20.03;40.18;102509.50;16123117;19;129591;-47
2023/01/02 23:47:33;;;;;;;2.58;0.40;;;;;;;19.99;39.79;102515.50;16121296;19;130779;-47
2023/01/02 23:52:55;;;;;;;1.35;0.35;;;;;;;19.95;40.36;102511.41;16122093;19;129866;-46
2023/01/02 23:58:16;;;;;;;1.50;0.30;;;;;;;19.92;40.15;102517.41;16121261;19;129747;-47
